sensor_id;sensor_type;location;lat;lon;timestamp;temperature;humidity
64888;DHT22;51386;53.082;8.816;2023-11-21T00:01:23;11.70;97.30
64888;DHT22;51386;53.082;8.816;2023-11-21T00:03:52;11.80;97.40
64888;DHT22;51386;53.082;8.816;2023-11-21T00:06:23;11.70;97.40
64888;DHT22;51386;53.082;8.816;2023-11-21T00:08:51;11.70;97.50
64888;DHT22;51386;53.082;8.816;2023-11-21T00:11:19;11.70;97.60
64888;DHT22;51386;53.082;8.816;2023-11-21T00:13:48;11.70;97.60
64888;DHT22;51386;53.082;8.816;2023-11-21T00:16:17;11.70;97.60
64888;DHT22;51386;53.082;8.816;2023-11-21T00:18:46;11.70;97.60
64888;DHT22;51386;53.082;8.816;2023-11-21T00:21:14;11.70;97.60
64888;DHT22;51386;53.082;8.816;2023-11-21T00:23:43;11.70;97.60
64888;DHT22;51386;53.082;8.816;2023-11-21T00:26:11;11.70;97.70
64888;DHT22;51386;53.082;8.816;2023-11-21T00:28:39;11.70;97.60
64888;DHT22;51386;53.082;8.816;2023-11-21T00:31:08;11.70;97.70
64888;DHT22;51386;53.082;8.816;2023-11-21T00:33:36;11.60;97.70
64888;DHT22;51386;53.082;8.816;2023-11-21T00:36:05;11.70;97.80
64888;DHT22;51386;53.082;8.816;2023-11-21T00:38:37;11.60;97.80
64888;DHT22;51386;53.082;8.816;2023-11-21T00:41:07;11.60;97.80
64888;DHT22;51386;53.082;8.816;2023-11-21T00:43:36;11.60;97.80
64888;DHT22;51386;53.082;8.816;2023-11-21T00:46:07;11.60;97.90
64888;DHT22;51386;53.082;8.816;2023-11-21T00:48:36;11.60;98.00
64888;DHT22;51386;53.082;8.816;2023-11-21T00:51:04;11.60;98.00
64888;DHT22;51386;53.082;8.816;2023-11-21T00:53:34;11.60;98.10
64888;DHT22;51386;53.082;8.816;2023-11-21T00:56:02;11.70;98.10
64888;DHT22;51386;53.082;8.816;2023-11-21T00:58:31;11.70;98.40
64888;DHT22;51386;53.082;8.816;2023-11-21T01:00:59;11.70;98.00
64888;DHT22;51386;53.082;8.816;2023-11-21T01:03:27;11.70;98.00
64888;DHT22;51386;53.082;8.816;2023-11-21T01:05:56;11.60;97.90
64888;DHT22;51386;53.082;8.816;2023-11-21T01:08:24;11.60;97.90
64888;DHT22;51386;53.082;8.816;2023-11-21T01:10:52;11.60;97.90
64888;DHT22;51386;53.082;8.816;2023-11-21T01:13:21;11.60;97.90
64888;DHT22;51386;53.082;8.816;2023-11-21T01:15:50;11.60;97.90
64888;DHT22;51386;53.082;8.816;2023-11-21T01:18:18;11.60;97.90
64888;DHT22;51386;53.082;8.816;2023-11-21T01:20:46;11.60;97.90
64888;DHT22;51386;53.082;8.816;2023-11-21T01:23:15;11.60;97.90
64888;DHT22;51386;53.082;8.816;2023-11-21T01:25:43;11.60;97.90
64888;DHT22;51386;53.082;8.816;2023-11-21T01:28:11;11.50;97.90
64888;DHT22;51386;53.082;8.816;2023-11-21T01:30:40;11.50;97.90
64888;DHT22;51386;53.082;8.816;2023-11-21T01:33:09;11.60;98.00
64888;DHT22;51386;53.082;8.816;2023-11-21T01:35:37;11.50;98.10
64888;DHT22;51386;53.082;8.816;2023-11-21T01:38:05;11.60;98.10
64888;DHT22;51386;53.082;8.816;2023-11-21T01:40:35;11.50;98.00
64888;DHT22;51386;53.082;8.816;2023-11-21T01:43:04;11.50;98.00
64888;DHT22;51386;53.082;8.816;2023-11-21T01:45:32;11.50;98.00
64888;DHT22;51386;53.082;8.816;2023-11-21T01:48:02;11.50;98.00
64888;DHT22;51386;53.082;8.816;2023-11-21T01:50:31;11.50;98.10
64888;DHT22;51386;53.082;8.816;2023-11-21T01:53:00;11.50;98.20
64888;DHT22;51386;53.082;8.816;2023-11-21T01:55:29;11.50;98.20
64888;DHT22;51386;53.082;8.816;2023-11-21T01:57:58;11.50;98.30
64888;DHT22;51386;53.082;8.816;2023-11-21T02:00:26;11.50;98.30
64888;DHT22;51386;53.082;8.816;2023-11-21T02:02:57;11.40;98.30
64888;DHT22;51386;53.082;8.816;2023-11-21T02:05:27;11.50;98.40
64888;DHT22;51386;53.082;8.816;2023-11-21T02:07:57;11.40;98.40
64888;DHT22;51386;53.082;8.816;2023-11-21T02:10:25;11.50;98.50
64888;DHT22;51386;53.082;8.816;2023-11-21T02:12:53;11.50;98.60
64888;DHT22;51386;53.082;8.816;2023-11-21T02:15:24;11.50;98.60
64888;DHT22;51386;53.082;8.816;2023-11-21T02:17:56;11.50;98.50
64888;DHT22;51386;53.082;8.816;2023-11-21T02:20:26;11.50;98.50
64888;DHT22;51386;53.082;8.816;2023-11-21T02:22:57;11.60;98.60
64888;DHT22;51386;53.082;8.816;2023-11-21T02:25:28;11.60;98.60
64888;DHT22;51386;53.082;8.816;2023-11-21T02:28:03;11.60;98.60
64888;DHT22;51386;53.082;8.816;2023-11-21T02:30:31;11.60;98.60
64888;DHT22;51386;53.082;8.816;2023-11-21T02:33:01;11.60;98.60
64888;DHT22;51386;53.082;8.816;2023-11-21T02:35:29;11.60;98.50
64888;DHT22;51386;53.082;8.816;2023-11-21T02:37:59;11.60;98.50
64888;DHT22;51386;53.082;8.816;2023-11-21T02:40:27;11.60;98.50
64888;DHT22;51386;53.082;8.816;2023-11-21T02:42:57;11.70;98.50
64888;DHT22;51386;53.082;8.816;2023-11-21T02:45:26;11.60;98.50
64888;DHT22;51386;53.082;8.816;2023-11-21T02:47:55;11.70;98.60
64888;DHT22;51386;53.082;8.816;2023-11-21T02:50:25;11.70;98.70
64888;DHT22;51386;53.082;8.816;2023-11-21T02:52:54;11.70;98.70
64888;DHT22;51386;53.082;8.816;2023-11-21T02:55:26;11.70;98.70
64888;DHT22;51386;53.082;8.816;2023-11-21T02:57:55;11.80;98.80
64888;DHT22;51386;53.082;8.816;2023-11-21T03:00:25;11.80;98.70
64888;DHT22;51386;53.082;8.816;2023-11-21T03:02:55;11.80;98.70
64888;DHT22;51386;53.082;8.816;2023-11-21T03:05:24;11.80;98.50
64888;DHT22;51386;53.082;8.816;2023-11-21T03:07:53;11.90;98.50
64888;DHT22;51386;53.082;8.816;2023-11-21T03:10:21;11.80;98.50
64888;DHT22;51386;53.082;8.816;2023-11-21T03:12:49;11.90;98.50
64888;DHT22;51386;53.082;8.816;2023-11-21T03:15:18;11.90;98.40
64888;DHT22;51386;53.082;8.816;2023-11-21T03:17:46;11.90;98.30
64888;DHT22;51386;53.082;8.816;2023-11-21T03:20:17;11.90;98.30
64888;DHT22;51386;53.082;8.816;2023-11-21T03:22:45;11.90;98.30
64888;DHT22;51386;53.082;8.816;2023-11-21T03:25:16;11.90;98.30
64888;DHT22;51386;53.082;8.816;2023-11-21T03:27:45;11.90;98.20
64888;DHT22;51386;53.082;8.816;2023-11-21T03:30:13;11.90;98.00
64888;DHT22;51386;53.082;8.816;2023-11-21T03:32:42;12.00;98.10
64888;DHT22;51386;53.082;8.816;2023-11-21T03:35:10;12.00;98.10
64888;DHT22;51386;53.082;8.816;2023-11-21T03:37:38;12.00;98.10
64888;DHT22;51386;53.082;8.816;2023-11-21T03:40:09;12.00;98.00
64888;DHT22;51386;53.082;8.816;2023-11-21T03:42:38;11.90;97.80
64888;DHT22;51386;53.082;8.816;2023-11-21T03:45:07;11.90;97.80
64888;DHT22;51386;53.082;8.816;2023-11-21T03:47:36;11.90;97.80
64888;DHT22;51386;53.082;8.816;2023-11-21T03:50:05;11.90;97.90
64888;DHT22;51386;53.082;8.816;2023-11-21T03:52:34;11.90;97.90
64888;DHT22;51386;53.082;8.816;2023-11-21T03:55:03;11.80;97.80
64888;DHT22;51386;53.082;8.816;2023-11-21T03:57:32;11.80;97.80
64888;DHT22;51386;53.082;8.816;2023-11-21T04:00:00;11.80;97.90
64888;DHT22;51386;53.082;8.816;2023-11-21T04:02:28;11.80;98.00
64888;DHT22;51386;53.082;8.816;2023-11-21T04:04:57;11.80;97.90
64888;DHT22;51386;53.082;8.816;2023-11-21T04:07:26;11.80;97.90
64888;DHT22;51386;53.082;8.816;2023-11-21T04:09:54;11.80;97.90
64888;DHT22;51386;53.082;8.816;2023-11-21T04:12:23;11.80;97.70
64888;DHT22;51386;53.082;8.816;2023-11-21T04:14:51;11.80;97.70
64888;DHT22;51386;53.082;8.816;2023-11-21T04:17:21;11.80;97.40
64888;DHT22;51386;53.082;8.816;2023-11-21T04:19:50;11.70;97.20
64888;DHT22;51386;53.082;8.816;2023-11-21T04:22:18;11.70;97.10
64888;DHT22;51386;53.082;8.816;2023-11-21T04:24:47;11.60;97.00
64888;DHT22;51386;53.082;8.816;2023-11-21T04:27:15;11.50;96.90
64888;DHT22;51386;53.082;8.816;2023-11-21T04:29:44;11.30;97.00
64888;DHT22;51386;53.082;8.816;2023-11-21T04:32:13;11.30;97.30
64888;DHT22;51386;53.082;8.816;2023-11-21T04:34:41;11.20;97.40
64888;DHT22;51386;53.082;8.816;2023-11-21T04:37:09;11.10;97.70
64888;DHT22;51386;53.082;8.816;2023-11-21T04:39:38;11.10;97.60
64888;DHT22;51386;53.082;8.816;2023-11-21T04:42:07;11.10;97.50
64888;DHT22;51386;53.082;8.816;2023-11-21T04:44:35;11.00;97.30
64888;DHT22;51386;53.082;8.816;2023-11-21T04:47:04;11.00;97.40
64888;DHT22;51386;53.082;8.816;2023-11-21T04:49:33;10.90;97.60
64888;DHT22;51386;53.082;8.816;2023-11-21T04:52:01;10.90;97.40
64888;DHT22;51386;53.082;8.816;2023-11-21T04:54:31;10.90;97.40
64888;DHT22;51386;53.082;8.816;2023-11-21T04:56:59;10.90;97.40
64888;DHT22;51386;53.082;8.816;2023-11-21T04:59:28;10.80;97.20
64888;DHT22;51386;53.082;8.816;2023-11-21T05:01:56;10.80;97.20
64888;DHT22;51386;53.082;8.816;2023-11-21T05:04:25;10.80;97.30
64888;DHT22;51386;53.082;8.816;2023-11-21T05:06:54;10.80;97.30
64888;DHT22;51386;53.082;8.816;2023-11-21T05:09:22;10.70;97.30
64888;DHT22;51386;53.082;8.816;2023-11-21T05:11:51;10.70;97.30
64888;DHT22;51386;53.082;8.816;2023-11-21T05:14:21;10.70;97.00
64888;DHT22;51386;53.082;8.816;2023-11-21T05:16:49;10.70;97.10
64888;DHT22;51386;53.082;8.816;2023-11-21T05:19:21;10.70;97.10
64888;DHT22;51386;53.082;8.816;2023-11-21T05:21:50;10.70;97.10
64888;DHT22;51386;53.082;8.816;2023-11-21T05:24:19;10.70;97.20
64888;DHT22;51386;53.082;8.816;2023-11-21T05:26:47;10.70;97.20
64888;DHT22;51386;53.082;8.816;2023-11-21T05:29:15;10.70;97.20
64888;DHT22;51386;53.082;8.816;2023-11-21T05:31:44;10.60;97.00
64888;DHT22;51386;53.082;8.816;2023-11-21T05:34:12;10.60;96.80
64888;DHT22;51386;53.082;8.816;2023-11-21T05:36:44;10.60;96.50
64888;DHT22;51386;53.082;8.816;2023-11-21T05:39:15;10.60;96.30
64888;DHT22;51386;53.082;8.816;2023-11-21T05:41:45;10.50;96.30
64888;DHT22;51386;53.082;8.816;2023-11-21T05:44:16;10.50;96.10
64888;DHT22;51386;53.082;8.816;2023-11-21T05:46:44;10.50;96.20
64888;DHT22;51386;53.082;8.816;2023-11-21T05:49:13;10.40;96.20
64888;DHT22;51386;53.082;8.816;2023-11-21T05:51:41;10.40;96.40
64888;DHT22;51386;53.082;8.816;2023-11-21T05:54:10;10.40;96.20
64888;DHT22;51386;53.082;8.816;2023-11-21T05:56:38;10.30;96.20
64888;DHT22;51386;53.082;8.816;2023-11-21T05:59:07;10.30;95.60
64888;DHT22;51386;53.082;8.816;2023-11-21T06:01:35;10.30;95.80
64888;DHT22;51386;53.082;8.816;2023-11-21T06:04:06;10.20;95.80
64888;DHT22;51386;53.082;8.816;2023-11-21T06:06:37;10.20;95.60
64888;DHT22;51386;53.082;8.816;2023-11-21T06:09:06;10.20;95.30
64888;DHT22;51386;53.082;8.816;2023-11-21T06:11:36;10.10;95.30
64888;DHT22;51386;53.082;8.816;2023-11-21T06:14:05;10.10;95.50
64888;DHT22;51386;53.082;8.816;2023-11-21T06:16:35;10.10;95.50
64888;DHT22;51386;53.082;8.816;2023-11-21T06:19:04;10.00;95.50
64888;DHT22;51386;53.082;8.816;2023-11-21T06:21:33;10.00;95.50
64888;DHT22;51386;53.082;8.816;2023-11-21T06:24:02;10.00;95.50
64888;DHT22;51386;53.082;8.816;2023-11-21T06:26:30;10.00;95.50
64888;DHT22;51386;53.082;8.816;2023-11-21T06:28:59;10.00;95.60
64888;DHT22;51386;53.082;8.816;2023-11-21T06:31:29;10.00;95.60
64888;DHT22;51386;53.082;8.816;2023-11-21T06:33:58;10.00;95.70
64888;DHT22;51386;53.082;8.816;2023-11-21T06:36:27;9.90;96.10
64888;DHT22;51386;53.082;8.816;2023-11-21T06:38:56;9.90;96.00
64888;DHT22;51386;53.082;8.816;2023-11-21T06:41:24;9.90;95.80
64888;DHT22;51386;53.082;8.816;2023-11-21T06:43:53;9.90;95.80
64888;DHT22;51386;53.082;8.816;2023-11-21T06:46:21;9.90;95.90
64888;DHT22;51386;53.082;8.816;2023-11-21T06:48:49;9.90;95.90
64888;DHT22;51386;53.082;8.816;2023-11-21T06:51:18;9.90;95.90
64888;DHT22;51386;53.082;8.816;2023-11-21T06:53:46;9.90;95.80
64888;DHT22;51386;53.082;8.816;2023-11-21T06:56:16;9.90;95.80
64888;DHT22;51386;53.082;8.816;2023-11-21T06:58:46;9.90;95.80
64888;DHT22;51386;53.082;8.816;2023-11-21T07:01:14;9.90;95.80
64888;DHT22;51386;53.082;8.816;2023-11-21T07:03:43;9.90;95.70
64888;DHT22;51386;53.082;8.816;2023-11-21T07:06:11;9.80;95.80
64888;DHT22;51386;53.082;8.816;2023-11-21T07:08:43;9.90;96.00
64888;DHT22;51386;53.082;8.816;2023-11-21T07:11:11;9.90;96.10
64888;DHT22;51386;53.082;8.816;2023-11-21T07:13:39;9.90;96.00
64888;DHT22;51386;53.082;8.816;2023-11-21T07:16:08;9.90;95.90
64888;DHT22;51386;53.082;8.816;2023-11-21T07:18:38;9.90;95.90
64888;DHT22;51386;53.082;8.816;2023-11-21T07:21:06;9.90;96.00
64888;DHT22;51386;53.082;8.816;2023-11-21T07:23:36;9.90;96.00
64888;DHT22;51386;53.082;8.816;2023-11-21T07:26:04;9.90;95.90
64888;DHT22;51386;53.082;8.816;2023-11-21T07:28:38;9.90;95.60
64888;DHT22;51386;53.082;8.816;2023-11-21T07:31:06;9.90;95.50
64888;DHT22;51386;53.082;8.816;2023-11-21T07:33:35;9.90;95.50
64888;DHT22;51386;53.082;8.816;2023-11-21T07:36:06;9.90;95.60
64888;DHT22;51386;53.082;8.816;2023-11-21T07:38:35;9.90;95.70
64888;DHT22;51386;53.082;8.816;2023-11-21T07:41:03;9.90;95.80
64888;DHT22;51386;53.082;8.816;2023-11-21T07:43:42;9.90;95.70
64888;DHT22;51386;53.082;8.816;2023-11-21T07:46:11;9.90;95.60
64888;DHT22;51386;53.082;8.816;2023-11-21T07:48:42;9.90;95.20
64888;DHT22;51386;53.082;8.816;2023-11-21T07:51:11;9.90;95.20
64888;DHT22;51386;53.082;8.816;2023-11-21T07:53:41;9.90;95.30
64888;DHT22;51386;53.082;8.816;2023-11-21T07:56:09;9.80;94.90
64888;DHT22;51386;53.082;8.816;2023-11-21T07:58:38;9.80;94.90
64888;DHT22;51386;53.082;8.816;2023-11-21T08:01:06;9.80;95.10
64888;DHT22;51386;53.082;8.816;2023-11-21T08:03:35;9.80;95.30
64888;DHT22;51386;53.082;8.816;2023-11-21T08:06:04;9.80;95.30
64888;DHT22;51386;53.082;8.816;2023-11-21T08:08:33;9.80;95.40
64888;DHT22;51386;53.082;8.816;2023-11-21T08:11:02;9.80;95.50
64888;DHT22;51386;53.082;8.816;2023-11-21T08:13:32;9.90;95.50
64888;DHT22;51386;53.082;8.816;2023-11-21T08:16:00;9.90;95.50
64888;DHT22;51386;53.082;8.816;2023-11-21T08:18:32;9.90;95.30
64888;DHT22;51386;53.082;8.816;2023-11-21T08:21:02;9.90;94.90
64888;DHT22;51386;53.082;8.816;2023-11-21T08:23:31;9.90;95.00
64888;DHT22;51386;53.082;8.816;2023-11-21T08:25:59;9.90;95.00
64888;DHT22;51386;53.082;8.816;2023-11-21T08:28:32;10.00;94.70
64888;DHT22;51386;53.082;8.816;2023-11-21T08:31:01;10.00;94.70
64888;DHT22;51386;53.082;8.816;2023-11-21T08:33:29;10.00;94.70
64888;DHT22;51386;53.082;8.816;2023-11-21T08:35:58;10.00;94.80
64888;DHT22;51386;53.082;8.816;2023-11-21T08:38:26;10.10;94.60
64888;DHT22;51386;53.082;8.816;2023-11-21T08:40:56;10.10;94.50
64888;DHT22;51386;53.082;8.816;2023-11-21T08:43:25;10.10;94.40
64888;DHT22;51386;53.082;8.816;2023-11-21T08:45:55;10.20;94.70
64888;DHT22;51386;53.082;8.816;2023-11-21T08:48:23;10.20;94.40
64888;DHT22;51386;53.082;8.816;2023-11-21T08:50:52;10.20;94.40
64888;DHT22;51386;53.082;8.816;2023-11-21T08:53:21;10.30;94.60
64888;DHT22;51386;53.082;8.816;2023-11-21T08:55:49;10.30;94.30
64888;DHT22;51386;53.082;8.816;2023-11-21T08:58:18;10.30;94.30
64888;DHT22;51386;53.082;8.816;2023-11-21T09:00:46;10.30;94.20
64888;DHT22;51386;53.082;8.816;2023-11-21T09:03:14;10.40;94.30
64888;DHT22;51386;53.082;8.816;2023-11-21T09:05:43;10.40;94.10
64888;DHT22;51386;53.082;8.816;2023-11-21T09:08:12;10.40;94.20
64888;DHT22;51386;53.082;8.816;2023-11-21T09:10:40;10.40;94.00
64888;DHT22;51386;53.082;8.816;2023-11-21T09:13:11;10.40;94.20
64888;DHT22;51386;53.082;8.816;2023-11-21T09:15:40;10.50;93.90
64888;DHT22;51386;53.082;8.816;2023-11-21T09:18:08;10.50;93.70
64888;DHT22;51386;53.082;8.816;2023-11-21T09:20:38;10.50;93.70
64888;DHT22;51386;53.082;8.816;2023-11-21T09:23:07;10.50;94.00
64888;DHT22;51386;53.082;8.816;2023-11-21T09:25:35;10.60;94.10
64888;DHT22;51386;53.082;8.816;2023-11-21T09:28:05;10.60;94.10
64888;DHT22;51386;53.082;8.816;2023-11-21T09:30:36;10.70;93.80
64888;DHT22;51386;53.082;8.816;2023-11-21T09:33:05;10.70;93.50
64888;DHT22;51386;53.082;8.816;2023-11-21T09:35:34;10.70;93.00
64888;DHT22;51386;53.082;8.816;2023-11-21T09:38:03;10.70;92.50
64888;DHT22;51386;53.082;8.816;2023-11-21T09:40:33;10.70;92.70
64888;DHT22;51386;53.082;8.816;2023-11-21T09:43:09;10.80;92.60
64888;DHT22;51386;53.082;8.816;2023-11-21T09:45:54;10.70;92.50
64888;DHT22;51386;53.082;8.816;2023-11-21T09:48:30;10.70;92.40
64888;DHT22;51386;53.082;8.816;2023-11-21T09:50:59;10.70;92.50
64888;DHT22;51386;53.082;8.816;2023-11-21T09:53:32;10.60;92.30
64888;DHT22;51386;53.082;8.816;2023-11-21T09:56:02;10.60;92.50
64888;DHT22;51386;53.082;8.816;2023-11-21T09:58:32;10.60;92.60
64888;DHT22;51386;53.082;8.816;2023-11-21T10:01:06;10.60;92.30
64888;DHT22;51386;53.082;8.816;2023-11-21T10:03:37;10.60;92.10
64888;DHT22;51386;53.082;8.816;2023-11-21T10:06:07;10.50;92.20
64888;DHT22;51386;53.082;8.816;2023-11-21T10:08:36;10.50;92.40
64888;DHT22;51386;53.082;8.816;2023-11-21T10:11:20;10.60;92.70
64888;DHT22;51386;53.082;8.816;2023-11-21T10:13:54;10.60;92.70
64888;DHT22;51386;53.082;8.816;2023-11-21T10:16:26;10.60;92.30
64888;DHT22;51386;53.082;8.816;2023-11-21T10:18:56;10.60;92.30
64888;DHT22;51386;53.082;8.816;2023-11-21T10:21:40;10.60;92.30
64888;DHT22;51386;53.082;8.816;2023-11-21T10:24:08;10.60;92.10
64888;DHT22;51386;53.082;8.816;2023-11-21T10:26:37;10.70;92.30
64888;DHT22;51386;53.082;8.816;2023-11-21T10:29:18;10.70;92.10
64888;DHT22;51386;53.082;8.816;2023-11-21T10:31:52;10.60;91.90
64888;DHT22;51386;53.082;8.816;2023-11-21T10:34:23;10.60;92.10
64888;DHT22;51386;53.082;8.816;2023-11-21T10:36:51;10.60;92.20
64888;DHT22;51386;53.082;8.816;2023-11-21T10:39:20;10.70;92.40
64888;DHT22;51386;53.082;8.816;2023-11-21T10:41:52;10.70;91.90
64888;DHT22;51386;53.082;8.816;2023-11-21T10:44:24;10.70;91.80
64888;DHT22;51386;53.082;8.816;2023-11-21T10:46:54;10.80;92.00
64888;DHT22;51386;53.082;8.816;2023-11-21T10:49:28;10.80;91.70
64888;DHT22;51386;53.082;8.816;2023-11-21T10:51:57;10.80;91.80
64888;DHT22;51386;53.082;8.816;2023-11-21T10:54:26;10.80;91.70
64888;DHT22;51386;53.082;8.816;2023-11-21T10:56:58;10.90;92.00
64888;DHT22;51386;53.082;8.816;2023-11-21T10:59:30;10.90;91.90
64888;DHT22;51386;53.082;8.816;2023-11-21T11:02:01;11.00;92.00
64888;DHT22;51386;53.082;8.816;2023-11-21T11:05:01;11.10;91.30
64888;DHT22;51386;53.082;8.816;2023-11-21T11:07:32;11.10;91.50
64888;DHT22;51386;53.082;8.816;2023-11-21T11:10:04;11.20;91.40
64888;DHT22;51386;53.082;8.816;2023-11-21T11:12:36;11.20;91.30
64888;DHT22;51386;53.082;8.816;2023-11-21T11:15:08;11.30;91.00
64888;DHT22;51386;53.082;8.816;2023-11-21T11:17:43;11.20;91.10
64888;DHT22;51386;53.082;8.816;2023-11-21T11:20:35;11.30;91.20
64888;DHT22;51386;53.082;8.816;2023-11-21T11:23:32;11.30;90.80
64888;DHT22;51386;53.082;8.816;2023-11-21T11:32:11;11.40;90.50
64888;DHT22;51386;53.082;8.816;2023-11-21T11:35:14;11.40;90.70
64888;DHT22;51386;53.082;8.816;2023-11-21T11:37:53;11.30;90.40
64888;DHT22;51386;53.082;8.816;2023-11-21T11:40:22;11.40;90.80
64888;DHT22;51386;53.082;8.816;2023-11-21T11:42:56;11.40;90.90
64888;DHT22;51386;53.082;8.816;2023-11-21T11:45:34;11.40;90.50
64888;DHT22;51386;53.082;8.816;2023-11-21T11:48:05;11.40;90.60
64888;DHT22;51386;53.082;8.816;2023-11-21T11:50:34;11.40;90.80
64888;DHT22;51386;53.082;8.816;2023-11-21T11:53:13;11.40;90.90
64888;DHT22;51386;53.082;8.816;2023-11-21T11:55:43;11.40;91.20
64888;DHT22;51386;53.082;8.816;2023-11-21T11:58:12;11.50;91.30
64888;DHT22;51386;53.082;8.816;2023-11-21T12:00:40;11.60;91.30
64888;DHT22;51386;53.082;8.816;2023-11-21T12:03:10;11.60;91.30
64888;DHT22;51386;53.082;8.816;2023-11-21T12:05:40;11.80;91.00
64888;DHT22;51386;53.082;8.816;2023-11-21T12:08:11;11.80;90.40
64888;DHT22;51386;53.082;8.816;2023-11-21T12:10:40;11.80;89.20
64888;DHT22;51386;53.082;8.816;2023-11-21T12:13:09;11.80;90.00
64888;DHT22;51386;53.082;8.816;2023-11-21T12:15:40;11.70;90.20
64888;DHT22;51386;53.082;8.816;2023-11-21T12:18:09;11.70;90.40
64888;DHT22;51386;53.082;8.816;2023-11-21T12:20:37;11.70;90.50
64888;DHT22;51386;53.082;8.816;2023-11-21T12:23:10;11.70;90.30
64888;DHT22;51386;53.082;8.816;2023-11-21T12:25:39;11.70;90.20
64888;DHT22;51386;53.082;8.816;2023-11-21T12:28:09;11.70;89.30
64888;DHT22;51386;53.082;8.816;2023-11-21T12:30:39;11.70;89.70
64888;DHT22;51386;53.082;8.816;2023-11-21T12:33:07;11.60;90.00
64888;DHT22;51386;53.082;8.816;2023-11-21T12:35:37;11.60;89.70
64888;DHT22;51386;53.082;8.816;2023-11-21T12:38:06;11.60;90.00
64888;DHT22;51386;53.082;8.816;2023-11-21T12:40:37;11.60;90.00
64888;DHT22;51386;53.082;8.816;2023-11-21T12:43:07;11.50;90.00
64888;DHT22;51386;53.082;8.816;2023-11-21T12:45:36;11.50;90.20
64888;DHT22;51386;53.082;8.816;2023-11-21T12:48:06;11.60;90.30
64888;DHT22;51386;53.082;8.816;2023-11-21T12:50:39;11.60;90.40
64888;DHT22;51386;53.082;8.816;2023-11-21T12:53:09;11.60;90.50
64888;DHT22;51386;53.082;8.816;2023-11-21T12:55:44;11.60;90.60
64888;DHT22;51386;53.082;8.816;2023-11-21T12:58:17;11.70;90.60
64888;DHT22;51386;53.082;8.816;2023-11-21T13:00:49;11.70;90.50
64888;DHT22;51386;53.082;8.816;2023-11-21T13:03:19;11.70;90.30
64888;DHT22;51386;53.082;8.816;2023-11-21T13:05:53;11.80;90.40
64888;DHT22;51386;53.082;8.816;2023-11-21T13:08:24;11.80;90.30
64888;DHT22;51386;53.082;8.816;2023-11-21T13:11:03;11.80;89.30
64888;DHT22;51386;53.082;8.816;2023-11-21T13:13:34;11.80;88.70
64888;DHT22;51386;53.082;8.816;2023-11-21T13:16:13;11.70;88.70
64888;DHT22;51386;53.082;8.816;2023-11-21T13:18:43;11.70;89.20
64888;DHT22;51386;53.082;8.816;2023-11-21T13:21:11;11.60;89.20
64888;DHT22;51386;53.082;8.816;2023-11-21T13:23:45;11.60;89.60
64888;DHT22;51386;53.082;8.816;2023-11-21T13:26:14;11.50;89.70
64888;DHT22;51386;53.082;8.816;2023-11-21T13:28:43;11.50;89.90
64888;DHT22;51386;53.082;8.816;2023-11-21T13:31:15;11.50;89.90
64888;DHT22;51386;53.082;8.816;2023-11-21T13:34:04;11.40;89.90
64888;DHT22;51386;53.082;8.816;2023-11-21T13:36:36;11.40;90.10
64888;DHT22;51386;53.082;8.816;2023-11-21T13:39:04;11.30;89.90
64888;DHT22;51386;53.082;8.816;2023-11-21T13:41:35;11.20;90.20
64888;DHT22;51386;53.082;8.816;2023-11-21T13:44:06;11.20;90.40
64888;DHT22;51386;53.082;8.816;2023-11-21T13:46:45;11.20;90.70
64888;DHT22;51386;53.082;8.816;2023-11-21T13:49:14;11.10;90.80
64888;DHT22;51386;53.082;8.816;2023-11-21T13:51:44;11.10;90.80
64888;DHT22;51386;53.082;8.816;2023-11-21T13:54:15;11.10;90.90
64888;DHT22;51386;53.082;8.816;2023-11-21T13:56:46;11.10;91.00
64888;DHT22;51386;53.082;8.816;2023-11-21T13:59:14;11.10;90.80
64888;DHT22;51386;53.082;8.816;2023-11-21T14:01:51;11.10;90.80
64888;DHT22;51386;53.082;8.816;2023-11-21T14:04:23;11.10;90.80
64888;DHT22;51386;53.082;8.816;2023-11-21T14:06:58;11.20;90.50
64888;DHT22;51386;53.082;8.816;2023-11-21T14:09:29;11.20;90.50
64888;DHT22;51386;53.082;8.816;2023-11-21T14:12:11;11.20;90.60
64888;DHT22;51386;53.082;8.816;2023-11-21T14:14:44;11.20;90.50
64888;DHT22;51386;53.082;8.816;2023-11-21T14:17:16;11.10;90.70
64888;DHT22;51386;53.082;8.816;2023-11-21T14:19:45;11.20;90.90
64888;DHT22;51386;53.082;8.816;2023-11-21T14:22:13;11.20;90.70
64888;DHT22;51386;53.082;8.816;2023-11-21T14:24:42;11.20;90.60
64888;DHT22;51386;53.082;8.816;2023-11-21T14:27:16;11.20;90.50
64888;DHT22;51386;53.082;8.816;2023-11-21T14:29:45;11.20;90.50
64888;DHT22;51386;53.082;8.816;2023-11-21T14:32:26;11.30;90.20
64888;DHT22;51386;53.082;8.816;2023-11-21T14:34:54;11.20;90.00
64888;DHT22;51386;53.082;8.816;2023-11-21T14:37:23;11.20;89.60
64888;DHT22;51386;53.082;8.816;2023-11-21T14:39:51;11.20;89.70
64888;DHT22;51386;53.082;8.816;2023-11-21T14:42:20;11.20;89.90
64888;DHT22;51386;53.082;8.816;2023-11-21T14:44:53;11.20;89.70
64888;DHT22;51386;53.082;8.816;2023-11-21T14:47:25;11.20;89.80
64888;DHT22;51386;53.082;8.816;2023-11-21T14:49:55;11.10;90.00
64888;DHT22;51386;53.082;8.816;2023-11-21T14:52:27;11.10;90.00
64888;DHT22;51386;53.082;8.816;2023-11-21T14:55:06;11.10;89.80
64888;DHT22;51386;53.082;8.816;2023-11-21T14:57:59;11.10;89.80
64888;DHT22;51386;53.082;8.816;2023-11-21T15:00:31;11.10;90.10
64888;DHT22;51386;53.082;8.816;2023-11-21T15:03:10;11.10;90.00
64888;DHT22;51386;53.082;8.816;2023-11-21T15:06:04;11.10;89.80
64888;DHT22;51386;53.082;8.816;2023-11-21T15:08:58;11.10;90.00
64888;DHT22;51386;53.082;8.816;2023-11-21T15:11:35;11.10;90.00
64888;DHT22;51386;53.082;8.816;2023-11-21T15:14:06;11.10;89.60
64888;DHT22;51386;53.082;8.816;2023-11-21T15:16:35;11.10;89.40
64888;DHT22;51386;53.082;8.816;2023-11-21T15:19:10;11.10;89.00
64888;DHT22;51386;53.082;8.816;2023-11-21T15:21:45;11.00;89.10
64888;DHT22;51386;53.082;8.816;2023-11-21T15:24:14;11.00;88.40
64888;DHT22;51386;53.082;8.816;2023-11-21T15:26:42;10.90;88.60
64888;DHT22;51386;53.082;8.816;2023-11-21T15:29:11;10.90;88.80
64888;DHT22;51386;53.082;8.816;2023-11-21T15:31:40;10.80;89.00
64888;DHT22;51386;53.082;8.816;2023-11-21T15:34:15;10.80;89.90
64888;DHT22;51386;53.082;8.816;2023-11-21T15:36:43;10.80;89.60
64888;DHT22;51386;53.082;8.816;2023-11-21T15:39:12;10.70;89.50
64888;DHT22;51386;53.082;8.816;2023-11-21T15:41:40;10.70;90.00
64888;DHT22;51386;53.082;8.816;2023-11-21T15:44:09;10.70;90.10
64888;DHT22;51386;53.082;8.816;2023-11-21T15:46:39;10.70;90.20
64888;DHT22;51386;53.082;8.816;2023-11-21T15:49:10;10.70;90.20
64888;DHT22;51386;53.082;8.816;2023-11-21T15:51:44;10.70;90.40
64888;DHT22;51386;53.082;8.816;2023-11-21T15:54:20;10.70;90.30
64888;DHT22;51386;53.082;8.816;2023-11-21T15:56:53;10.70;90.20
64888;DHT22;51386;53.082;8.816;2023-11-21T15:59:27;10.70;90.10